Time;durP1;ratioP1;P1;durP2;ratioP2;P2;SDS_P1;SDS_P2;PMS_P1;PMS_P2;Temp;Humidity;BMP_temperature;BMP_pressure;BME280_temperature;BME280_humidity;BME280_pressure;Samples;Min_cycle;Max_cycle;Signal;HPM_P1;HPM_P2
2020/12/18 00:01:43;;;;;;;52.35;29.63;;;;;;;2.59;74.23;97453.84;1655315;86;21401;-82
2020/12/18 00:04:13;;;;;;;50.58;28.70;;;;;;;2.65;73.97;97447.48;1655170;86;21660;-82
2020/12/18 00:06:42;;;;;;;49.65;29.10;;;;;;;2.72;73.83;97450.61;1655423;86;21168;-82
2020/12/18 00:09:11;;;;;;;51.10;29.20;;;;;;;2.75;73.58;97449.16;1654775;86;21196;-81
2020/12/18 00:11:40;;;;;;;48.23;27.77;;;;;;;2.71;73.34;97448.94;1654917;86;21097;-81
2020/12/18 00:14:10;;;;;;;49.85;28.95;;;;;;;2.66;73.38;97445.27;1655603;86;22272;-82
2020/12/18 00:16:39;;;;;;;50.17;28.07;;;;;;;2.64;73.43;97447.95;1655435;86;21526;-81
2020/12/18 00:19:08;;;;;;;50.98;27.07;;;;;;;2.67;73.53;97446.97;1655499;86;21543;-82
2020/12/18 00:21:38;;;;;;;59.15;30.92;;;;;;;2.71;73.39;97448.47;1655676;86;21062;-81
2020/12/18 00:24:09;;;;;;;53.60;28.07;;;;;;;2.71;73.42;97453.67;1655417;86;21061;-81
2020/12/18 00:26:37;;;;;;;49.90;26.70;;;;;;;2.71;73.35;97439.37;1655194;86;21208;-81
2020/12/18 00:29:08;;;;;;;46.50;24.05;;;;;;;2.67;73.38;97436.11;1655233;86;21097;-80
2020/12/18 00:31:37;;;;;;;46.05;23.85;;;;;;;2.66;73.38;97438.30;1609889;86;21523;-80
2020/12/18 00:34:05;;;;;;;47.90;25.25;;;;;;;2.69;73.42;97443.82;1655646;86;21176;-82
2020/12/18 00:36:34;;;;;;;49.00;24.75;;;;;;;2.67;73.41;97441.77;1655413;86;21116;-82
2020/12/18 00:39:05;;;;;;;47.08;23.67;;;;;;;2.64;73.45;97444.05;1655182;86;22393;-81
2020/12/18 00:41:34;;;;;;;47.30;24.60;;;;;;;2.59;73.51;97444.74;1655234;86;21596;-80
2020/12/18 00:44:03;;;;;;;55.17;30.75;;;;;;;2.53;73.77;97445.52;1655176;86;21593;-82
2020/12/18 00:46:32;;;;;;;57.48;30.77;;;;;;;2.51;73.83;97442.17;1655232;86;21164;-82
2020/12/18 00:49:00;;;;;;;60.55;29.65;;;;;;;2.48;73.75;97445.75;1655302;86;21084;-82
2020/12/18 00:51:29;;;;;;;58.15;28.57;;;;;;;2.46;73.75;97438.96;1655517;86;21433;-81
2020/12/18 00:53:57;;;;;;;51.98;27.55;;;;;;;2.45;73.71;97441.19;1655099;85;21140;-81
2020/12/18 00:56:26;;;;;;;45.58;26.33;;;;;;;2.35;73.80;97426.51;1655365;86;21534;-80
2020/12/18 00:58:56;;;;;;;61.75;32.73;;;;;;;2.33;74.06;97437.45;1655654;86;21089;-82
2020/12/18 01:01:25;;;;;;;59.50;32.08;;;;;;;2.27;74.22;97432.10;1656031;86;21168;-80
2020/12/18 01:03:54;;;;;;;63.75;33.35;;;;;;;2.22;74.33;97433.25;1655303;86;22448;-80
2020/12/18 01:06:22;;;;;;;55.23;32.17;;;;;;;2.13;74.54;97427.61;1655454;86;21151;-81
2020/12/18 01:08:59;;;;;;;58.25;30.55;;;;;;;2.06;74.75;97436.59;1655188;86;21101;-81
2020/12/18 01:11:29;;;;;;;67.42;33.38;;;;;;;2.02;75.05;97432.49;1654996;86;21104;-81
2020/12/18 01:13:58;;;;;;;63.65;33.73;;;;;;;2.01;74.92;97430.78;1656113;86;21070;-81
2020/12/18 01:16:28;;;;;;;63.85;33.08;;;;;;;1.95;75.06;97440.18;1655191;86;21218;-82
2020/12/18 01:18:58;;;;;;;67.60;35.80;;;;;;;1.96;75.37;97441.05;1654842;86;21088;-82
2020/12/18 01:21:29;;;;;;;58.50;33.50;;;;;;;2.01;75.50;97442.47;1654871;86;21118;-81
2020/12/18 01:23:58;;;;;;;62.30;34.50;;;;;;;2.10;75.31;97438.59;1655005;86;21195;-81
2020/12/18 01:26:29;;;;;;;61.40;34.08;;;;;;;2.13;75.06;97446.22;1655275;86;21073;-81
2020/12/18 01:28:58;;;;;;;63.85;33.18;;;;;;;2.11;75.15;97448.91;1655260;86;21218;-81
2020/12/18 01:31:27;;;;;;;58.75;31.62;;;;;;;2.18;75.16;97452.50;1655334;86;21093;-82
2020/12/18 01:33:56;;;;;;;58.42;31.60;;;;;;;2.21;75.04;97452.36;1655267;86;21132;-82
2020/12/18 01:36:26;;;;;;;51.70;27.42;;;;;;;2.21;74.83;97451.06;1654999;86;21124;-82
2020/12/18 01:38:57;;;;;;;52.13;27.07;;;;;;;2.20;74.88;97456.72;1655001;86;21096;-82
2020/12/18 01:41:26;;;;;;;51.23;28.00;;;;;;;2.17;75.00;97453.42;1654907;86;21508;-81
2020/12/18 01:43:57;;;;;;;56.83;28.27;;;;;;;2.13;75.04;97456.19;1655038;86;21140;-81
2020/12/18 01:46:29;;;;;;;50.25;28.10;;;;;;;2.12;75.38;97455.78;1655100;86;21081;-82
2020/12/18 01:48:59;;;;;;;57.78;27.98;;;;;;;2.13;75.16;97466.58;1655514;86;28272;-81
2020/12/18 01:51:29;;;;;;;50.78;27.35;;;;;;;2.10;75.27;97468.02;1655899;86;21148;-81
2020/12/18 01:54:00;;;;;;;57.00;30.08;;;;;;;2.03;75.38;97465.34;1655611;86;21509;-81
2020/12/18 01:56:30;;;;;;;51.42;26.60;;;;;;;1.94;75.38;97468.83;1654307;85;21518;-82
2020/12/18 01:59:01;;;;;;;49.18;25.08;;;;;;;1.85;75.73;97463.18;1659926;86;21152;-81
2020/12/18 02:01:31;;;;;;;49.65;25.10;;;;;;;1.92;75.79;97473.27;1626471;88;21205;-80
2020/12/18 02:04:03;;;;;;;51.13;26.23;;;;;;;1.93;75.79;97472.34;1654491;86;21567;-81
2020/12/18 02:06:34;;;;;;;50.03;24.15;;;;;;;1.97;75.89;97479.92;1634283;86;21563;-82
2020/12/18 02:09:05;;;;;;;41.98;22.93;;;;;;;2.00;75.89;97486.71;1624650;87;21208;-80
2020/12/18 02:11:41;;;;;;;40.30;21.90;;;;;;;2.02;75.83;97488.34;1654336;86;21119;-82
2020/12/18 02:14:13;;;;;;;47.40;23.98;;;;;;;2.06;75.54;97487.25;1653999;86;21225;-82
2020/12/18 02:16:44;;;;;;;54.80;31.23;;;;;;;2.00;75.24;97491.45;1654578;86;21209;-82
2020/12/18 02:19:14;;;;;;;47.73;24.37;;;;;;;1.88;75.43;97492.87;1654245;85;22353;-81
2020/12/18 02:21:46;;;;;;;44.53;23.30;;;;;;;1.83;75.78;97491.41;1633694;86;21241;-81
2020/12/18 02:24:28;;;;;;;55.20;27.62;;;;;;;1.82;76.04;97500.13;1654277;86;21149;-81
2020/12/18 02:26:58;;;;;;;43.23;23.62;;;;;;;1.85;76.07;97500.83;1655133;86;21094;-81
2020/12/18 02:29:28;;;;;;;52.58;25.60;;;;;;;1.78;75.96;97499.88;1654279;86;21081;-81
2020/12/18 02:32:01;;;;;;;55.38;27.80;;;;;;;1.62;76.44;97500.23;1654768;85;21232;-81
2020/12/18 02:34:38;;;;;;;56.28;25.55;;;;;;;1.58;77.00;97508.16;1654511;85;21200;-81
2020/12/18 02:37:09;;;;;;;54.93;23.38;;;;;;;1.66;77.31;97508.25;1654494;85;21125;-80
2020/12/18 02:39:38;;;;;;;51.73;22.35;;;;;;;1.70;77.19;97511.09;1654280;86;21078;-81
2020/12/18 02:42:09;;;;;;;44.00;21.40;;;;;;;1.70;77.15;97514.53;1655099;85;21514;-81
2020/12/18 02:44:39;;;;;;;44.83;22.60;;;;;;;1.69;77.09;97521.94;1655060;86;21654;-82
2020/12/18 02:47:15;;;;;;;44.88;20.60;;;;;;;1.69;77.07;97522.39;1657884;83;21118;-81
2020/12/18 02:49:45;;;;;;;47.00;21.40;;;;;;;1.64;77.20;97530.39;1658143;84;21119;-81
2020/12/18 02:52:15;;;;;;;51.30;22.42;;;;;;;1.61;77.31;97529.25;1658279;83;21134;-81
2020/12/18 02:54:58;;;;;;;43.13;19.98;;;;;;;1.56;77.24;97528.62;1655134;83;21336;-81
2020/12/18 02:57:43;;;;;;;41.18;21.12;;;;;;;1.51;77.43;97533.17;1634105;83;21659;-80
2020/12/18 03:00:14;;;;;;;50.20;23.57;;;;;;;1.38;77.50;97535.48;1633531;83;21117;-81
2020/12/18 03:02:47;;;;;;;42.75;19.48;;;;;;;1.31;78.04;97531.49;1633228;84;26686;-82
2020/12/18 03:05:16;;;;;;;43.30;21.25;;;;;;;1.31;78.34;97531.49;1631723;88;21123;-81
2020/12/18 03:07:48;;;;;;;43.00;21.48;;;;;;;1.27;78.48;97528.18;1632882;86;21164;-81
2020/12/18 03:10:18;;;;;;;38.85;20.80;;;;;;;1.30;78.64;97538.44;1631958;86;21402;-80
2020/12/18 03:12:49;;;;;;;44.38;22.00;;;;;;;1.39;78.77;97537.63;1648765;87;21086;-82
2020/12/18 03:15:18;;;;;;;46.37;21.87;;;;;;;1.53;78.70;97536.53;1648014;86;21149;-82
2020/12/18 03:17:57;;;;;;;39.90;19.73;;;;;;;1.66;78.53;97548.06;1621618;88;21138;-81
2020/12/18 03:20:27;;;;;;;42.70;18.73;;;;;;;1.71;78.13;97547.36;1648327;87;21081;-82
2020/12/18 03:23:13;;;;;;;33.67;16.25;;;;;;;1.72;77.98;97549.50;1648504;86;21442;-82
2020/12/18 03:26:01;;;;;;;35.90;18.30;;;;;;;1.71;77.62;97547.82;1647937;86;21118;-79
2020/12/18 03:28:34;;;;;;;35.33;17.17;;;;;;;1.58;77.51;97561.37;1648906;86;21180;-81
2020/12/18 03:31:05;;;;;;;32.40;15.23;;;;;;;1.47;77.82;97556.27;1649161;87;21173;-82
2020/12/18 03:33:35;;;;;;;39.60;17.50;;;;;;;1.39;78.11;97555.79;1650939;86;21626;-82
2020/12/18 03:36:05;;;;;;;37.75;18.35;;;;;;;1.34;78.38;97554.69;1648165;86;21177;-82
2020/12/18 03:38:35;;;;;;;36.28;17.10;;;;;;;1.35;78.59;97561.56;1648066;87;21128;-81
2020/12/18 03:41:07;;;;;;;36.08;17.82;;;;;;;1.39;78.50;97558.38;1647876;87;21128;-81
2020/12/18 03:43:37;;;;;;;37.85;18.60;;;;;;;1.38;78.52;97551.06;1647819;87;21070;-81
2020/12/18 03:46:08;;;;;;;36.35;17.73;;;;;;;1.43;78.83;97557.34;1647868;87;21054;-80
2020/12/18 03:48:50;;;;;;;38.17;18.87;;;;;;;1.48;78.80;97562.72;1648605;86;22353;-82
2020/12/18 03:51:24;;;;;;;31.70;16.73;;;;;;;1.56;78.81;97563.20;1648766;86;21855;-81
2020/12/18 03:53:54;;;;;;;30.68;15.68;;;;;;;1.54;78.39;97566.76;1648423;86;21613;-82
2020/12/18 03:56:36;;;;;;;34.57;17.37;;;;;;;1.47;78.40;97561.47;1652492;85;21468;-82
2020/12/18 03:59:23;;;;;;;30.10;15.45;;;;;;;1.36;78.51;97567.13;1654962;85;21231;-81
2020/12/18 04:02:03;;;;;;;34.27;17.07;;;;;;;1.34;78.91;97566.37;1661202;86;21152;-81
2020/12/18 04:04:33;;;;;;;28.73;15.40;;;;;;;1.36;78.99;97572.78;1626186;88;21157;-81
2020/12/18 04:07:07;;;;;;;30.72;15.32;;;;;;;1.37;78.85;97570.14;1695370;84;21205;-82
2020/12/18 04:09:36;;;;;;;32.30;15.90;;;;;;;1.33;79.03;97579.80;1695335;84;21534;-82
2020/12/18 04:12:07;;;;;;;30.92;15.80;;;;;;;1.42;78.87;97574.64;1695583;84;21096;-81
2020/12/18 04:14:39;;;;;;;34.03;16.77;;;;;;;1.48;78.71;97573.52;1694844;84;21693;-81
2020/12/18 04:17:16;;;;;;;35.25;17.10;;;;;;;1.49;78.42;97573.48;1694902;84;21260;-81
2020/12/18 04:19:48;;;;;;;32.78;17.48;;;;;;;1.54;78.57;97574.55;1694892;84;21180;-81
2020/12/18 04:22:17;;;;;;;30.20;16.07;;;;;;;1.54;78.34;97574.55;1695128;84;21085;-82
2020/12/18 04:24:53;;;;;;;33.70;17.42;;;;;;;1.54;78.30;97576.72;1688288;84;21155;-81
2020/12/18 04:27:23;;;;;;;28.80;16.82;;;;;;;1.57;78.35;97579.16;1695182;84;21441;-80
2020/12/18 04:29:52;;;;;;;32.38;17.12;;;;;;;1.66;78.06;97587.00;1695643;84;21188;-80
2020/12/18 04:32:23;;;;;;;34.25;17.65;;;;;;;1.62;77.90;97587.20;1695250;84;21148;-80
2020/12/18 04:34:53;;;;;;;35.78;19.55;;;;;;;1.61;77.98;97581.17;1694856;84;21173;-80
2020/12/18 04:37:25;;;;;;;34.95;19.37;;;;;;;1.59;78.12;97582.97;1694951;84;21153;-81
2020/12/18 04:39:59;;;;;;;43.02;22.05;;;;;;;1.68;78.19;97589.52;1694580;84;21251;-82
2020/12/18 04:42:33;;;;;;;39.27;18.80;;;;;;;1.79;78.01;97583.38;1694843;84;21108;-81
2020/12/18 04:45:03;;;;;;;37.63;18.82;;;;;;;1.84;77.80;97584.86;1694946;84;21589;-82
2020/12/18 04:47:42;;;;;;;35.05;18.07;;;;;;;1.90;77.38;97585.45;1695178;84;21168;-82
2020/12/18 04:50:12;;;;;;;37.38;19.90;;;;;;;1.81;77.33;97586.28;1694880;84;21625;-82
2020/12/18 04:52:42;;;;;;;34.53;18.82;;;;;;;1.79;77.57;97584.67;1654113;86;21482;-83
2020/12/18 04:55:11;;;;;;;39.67;20.95;;;;;;;1.82;77.57;97583.22;1634066;86;21819;-83
2020/12/18 04:57:42;;;;;;;32.13;17.35;;;;;;;1.86;77.63;97578.28;1624881;86;21273;-81
2020/12/18 05:00:13;;;;;;;32.75;16.48;;;;;;;1.92;77.29;97574.09;1654447;86;21166;-80
2020/12/18 05:02:52;;;;;;;31.87;15.55;;;;;;;1.98;77.16;97578.16;1612280;86;21212;-82
2020/12/18 05:05:22;;;;;;;31.25;17.23;;;;;;;2.08;77.21;97584.16;1655673;86;21412;-81
2020/12/18 05:07:53;;;;;;;28.10;16.32;;;;;;;2.13;76.55;97586.52;1655985;86;21645;-81
2020/12/18 05:10:23;;;;;;;31.27;16.52;;;;;;;2.03;76.43;97583.53;1656011;86;21165;-81
2020/12/18 05:13:03;;;;;;;34.67;18.07;;;;;;;1.92;76.47;97588.38;1657424;86;21252;-82
2020/12/18 05:15:46;;;;;;;38.60;19.40;;;;;;;1.90;76.76;97587.63;1657808;86;21206;-80
2020/12/18 05:18:33;;;;;;;36.30;19.52;;;;;;;1.96;76.67;97587.34;1656757;86;21377;-82
2020/12/18 05:21:06;;;;;;;40.83;19.25;;;;;;;1.97;76.72;97585.58;1656513;85;21184;-81
2020/12/18 05:23:40;;;;;;;45.33;20.55;;;;;;;2.07;76.65;97590.70;1656345;86;21238;-82
2020/12/18 05:26:12;;;;;;;43.15;22.87;;;;;;;2.07;76.51;97592.00;1655518;85;21066;-80
2020/12/18 05:28:47;;;;;;;45.03;23.47;;;;;;;2.07;76.60;97590.25;1657664;85;21114;-80
2020/12/18 05:31:19;;;;;;;44.18;22.22;;;;;;;2.08;76.48;97596.31;1657627;86;21404;-80
2020/12/18 05:34:08;;;;;;;44.83;21.37;;;;;;;2.05;76.37;97597.28;1657290;86;21254;-81
2020/12/18 05:36:47;;;;;;;43.87;22.40;;;;;;;1.95;76.49;97592.58;1655252;86;21129;-82
2020/12/18 05:39:26;;;;;;;47.78;24.15;;;;;;;1.89;76.84;97592.41;1655766;86;21197;-83
2020/12/18 05:42:01;;;;;;;45.35;23.35;;;;;;;1.91;77.29;97591.06;1614368;86;21229;-82
2020/12/18 05:44:33;;;;;;;43.73;22.30;;;;;;;1.95;77.00;97597.77;1655412;86;21527;-83
2020/12/18 06:01:53;;;;;;;31.33;17.40;;;;;;;1.96;77.58;97608.58;1762782;79;29165;-81
2020/12/18 06:04:45;;;;;;;27.40;15.90;;;;;;;2.00;77.37;97610.94;1745191;82;21063;-82
2020/12/18 06:07:30;;;;;;;27.52;14.20;;;;;;;2.14;77.23;97615.51;1836587;77;22831;-81
2020/12/18 06:10:10;;;;;;;30.05;16.75;;;;;;;2.15;77.03;97618.48;1760235;81;21188;-81
2020/12/18 06:13:03;;;;;;;32.67;17.20;;;;;;;2.18;77.10;97625.28;1781802;80;21390;-83
2020/12/18 06:15:46;;;;;;;33.02;16.40;;;;;;;2.35;76.86;97627.47;1829603;77;22795;-82
2020/12/18 06:18:19;;;;;;;32.20;16.73;;;;;;;2.41;76.52;97628.94;1790430;79;21125;-83
2020/12/18 06:20:58;;;;;;;44.60;23.92;;;;;;;2.48;76.10;97635.52;1789914;80;21094;-82
2020/12/18 06:23:45;;;;;;;46.68;24.32;;;;;;;2.55;75.91;97623.94;1791601;78;21268;-83
2020/12/18 06:26:52;;;;;;;53.90;28.45;;;;;;;2.66;75.87;97621.63;1849594;77;22783;-85
2020/12/18 06:29:36;;;;;;;58.78;31.10;;;;;;;2.71;75.55;97629.67;1816151;77;21197;-82
2020/12/18 06:36:57;;;;;;;42.17;23.95;;;;;;;2.74;74.77;97633.44;1824292;77;22011;-84
2020/12/18 06:39:57;;;;;;;38.05;20.23;;;;;;;2.60;74.92;97638.83;1842139;77;21034;-83
2020/12/18 06:42:51;;;;;;;28.50;16.40;;;;;;;2.64;74.96;97638.23;1834944;77;21193;-82
2020/12/18 06:45:49;;;;;;;27.17;15.85;;;;;;;2.70;75.30;97640.53;1849511;75;23295;-85
2020/12/18 06:49:09;;;;;;;29.40;15.70;;;;;;;2.67;74.96;97648.50;1751109;76;21076;-84
2020/12/18 06:52:57;;;;;;;28.23;17.48;;;;;;;2.59;75.09;97657.11;1766242;76;21198;-81
2020/12/18 06:56:33;;;;;;;42.93;23.47;;;;;;;2.56;75.43;97658.11;1683036;82;21131;-84
2020/12/18 07:00:24;;;;;;;44.35;25.05;;;;;;;2.63;75.27;97662.55;1688226;84;21151;-84
2020/12/18 07:03:55;;;;;;;;;;;;;;;2.72;75.21;97666.45;1757499;75;21129;-84
2020/12/18 07:10:44;;;;;;;39.75;23.73;;;;;;;2.79;75.04;97663.50;1729469;79;22844;-83
2020/12/18 07:13:48;;;;;;;43.33;25.72;;;;;;;2.87;74.76;97666.56;1782559;77;21089;-83
2020/12/18 07:16:32;;;;;;;65.52;38.42;;;;;;;2.93;74.54;97661.05;1768061;77;21076;-84
2020/12/18 07:41:36;;;;;;;53.45;29.18;;;;;;;3.08;73.68;97679.41;1731943;80;21129;-84
2020/12/18 07:45:08;;;;;;;56.13;30.43;;;;;;;3.13;73.51;97684.77;1763616;79;21224;-84
2020/12/18 16:07:33;;;;;;;60.00;32.67;;;;;;;5.07;69.53;97668.27;1584881;83;24839;31
2020/12/18 16:18:39;;;;;;;75.97;40.10;;;;;;;5.38;68.67;97673.84;1617132;81;21222;-85
2020/12/18 17:05:15;;;;;;;;;;;;;;;5.15;69.45;97698.68;1521000;88;21371;31
2020/12/18 17:08:41;;;;;;;;;;;;;;;5.13;69.60;97697.09;1463161;92;20231;-84
2020/12/18 17:12:06;;;;;;;32.53;18.40;;;;;;;5.12;69.42;97696.73;1516129;87;21055;-82
2020/12/18 17:15:15;;;;;;;29.92;16.80;;;;;;;5.09;69.65;97693.81;1557941;85;21283;-82
2020/12/18 17:18:25;;;;;;;47.40;29.67;;;;;;;5.19;69.23;97696.28;1618589;83;21161;-82
2020/12/18 17:21:38;;;;;;;43.38;23.02;;;;;;;5.19;69.09;97702.80;1722420;78;21088;-85
2020/12/18 17:32:45;;;;;;;34.35;21.40;;;;;;;5.27;69.04;97698.44;1740252;76;21439;-84
2020/12/18 17:35:48;;;;;;;36.58;22.45;;;;;;;5.31;68.97;97703.39;1672047;81;21252;-85
2020/12/18 17:39:05;;;;;;;30.52;17.67;;;;;;;5.37;68.85;97700.89;1691940;82;21117;-83
2020/12/18 17:41:58;;;;;;;27.40;17.32;;;;;;;5.39;68.72;97696.88;1689033;82;21188;-84
2020/12/18 17:44:29;;;;;;;33.58;19.17;;;;;;;5.40;68.81;97701.20;1668341;84;21053;-84
2020/12/18 17:46:57;;;;;;;33.48;21.60;;;;;;;5.41;68.62;97702.88;1668614;85;21291;-83
2020/12/18 17:49:51;;;;;;;42.98;28.83;;;;;;;5.43;68.63;97711.45;1648060;85;21288;-86
2020/12/18 17:52:22;;;;;;;43.92;28.45;;;;;;;5.40;68.55;97708.57;1677210;84;21110;-83
2020/12/18 17:54:58;;;;;;;42.13;28.47;;;;;;;5.35;68.70;97708.83;1619170;86;21245;-83
2020/12/18 17:57:29;;;;;;;36.30;25.08;;;;;;;5.33;68.76;97708.52;1650326;85;21221;-84
2020/12/18 18:00:00;;;;;;;34.05;24.02;;;;;;;5.28;68.98;97708.81;1642262;84;22233;-84
2020/12/18 18:02:34;;;;;;;33.45;22.60;;;;;;;5.27;69.04;97710.19;1700433;82;21739;-84
2020/12/18 18:05:05;;;;;;;43.13;28.67;;;;;;;5.25;69.13;97709.45;1688280;82;21209;-84
2020/12/18 18:07:34;;;;;;;44.38;28.77;;;;;;;5.22;69.28;97712.25;1698244;82;21327;-85
2020/12/18 18:10:03;;;;;;;37.00;24.25;;;;;;;5.16;69.46;97706.91;1761105;80;21640;-82
2020/12/18 18:12:33;;;;;;;35.70;22.30;;;;;;;5.14;69.65;97704.00;1786410;79;21194;-83
2020/12/18 18:15:10;;;;;;;35.38;21.75;;;;;;;5.16;69.57;97699.52;1796135;79;21095;-85
2020/12/18 18:18:10;;;;;;;34.30;21.35;;;;;;;5.21;69.61;97703.55;1799154;78;21973;-84
2020/12/18 18:23:40;;;;;;;33.67;21.25;;;;;;;5.28;69.25;97700.98;1718171;80;21132;-83
2020/12/18 18:26:48;;;;;;;36.28;21.30;;;;;;;5.29;69.20;97705.27;1692648;79;21804;-83
2020/12/18 18:29:44;;;;;;;25.97;17.10;;;;;;;5.28;69.02;97697.06;1761935;80;21099;-85
2020/12/18 18:35:04;;;;;;;22.95;15.30;;;;;;;5.23;69.00;97706.93;1787048;79;21166;-83
2020/12/18 18:38:13;;;;;;;31.93;22.17;;;;;;;5.21;69.16;97703.55;1673238;84;21065;-84
2020/12/18 18:40:49;;;;;;;31.60;21.40;;;;;;;5.21;69.14;97709.23;1699100;81;22710;-85
2020/12/18 18:43:25;;;;;;;31.95;20.75;;;;;;;5.16;69.29;97708.22;1758761;76;21228;-83
2020/12/18 18:45:56;;;;;;;33.40;21.35;;;;;;;5.15;69.46;97709.59;1794495;76;21215;-84
2020/12/18 18:48:34;;;;;;;32.23;22.50;;;;;;;5.18;69.55;97704.20;1724274;78;21227;-83
2020/12/18 18:51:10;;;;;;;36.70;21.35;;;;;;;5.22;69.47;97718.31;1765771;78;21106;-83
2020/12/18 18:54:00;;;;;;;32.55;23.00;;;;;;;5.22;69.53;97718.78;1737585;80;22100;-83
2020/12/18 18:56:31;;;;;;;30.48;21.42;;;;;;;5.25;69.57;97718.58;1769205;80;21232;-83
2020/12/18 18:59:04;;;;;;;30.72;21.40;;;;;;;5.29;69.43;97714.87;1768198;80;21074;-83
2020/12/18 19:01:45;;;;;;;29.32;20.12;;;;;;;5.33;69.23;97713.75;1765794;80;21263;-83
2020/12/18 19:04:16;;;;;;;30.90;20.43;;;;;;;5.30;69.25;97714.78;1746362;78;21164;-82
2020/12/18 19:07:00;;;;;;;35.50;21.97;;;;;;;5.32;69.25;97712.07;1734798;80;21453;-85
2020/12/18 19:09:43;;;;;;;32.42;18.98;;;;;;;5.32;69.22;97714.21;1764672;80;21169;-85
2020/12/18 19:12:17;;;;;;;30.82;18.15;;;;;;;5.40;69.05;97715.09;1805829;79;21258;-83
2020/12/18 19:14:46;;;;;;;47.98;25.95;;;;;;;5.46;68.99;97721.73;1792917;78;21171;-83
2020/12/18 19:17:23;;;;;;;31.17;18.07;;;;;;;5.49;68.91;97726.77;1794186;77;21301;-84
2020/12/18 19:20:21;;;;;;;46.73;26.75;;;;;;;5.55;68.70;97729.02;1816759;76;21418;-85
2020/12/18 19:22:52;;;;;;;34.75;18.62;;;;;;;5.54;68.50;97734.71;1796507;78;21222;-82
2020/12/18 19:25:21;;;;;;;38.50;20.08;;;;;;;5.58;68.50;97734.91;1790166;79;21195;-83
2020/12/18 19:27:50;;;;;;;35.48;20.25;;;;;;;5.63;68.29;97731.58;1740124;77;21100;-83
2020/12/18 19:30:19;;;;;;;29.00;17.70;;;;;;;5.67;68.10;97733.52;1764808;80;21165;-82
2020/12/18 19:32:50;;;;;;;27.70;18.07;;;;;;;5.69;67.95;97735.56;1752201;80;21212;-84
2020/12/18 19:35:23;;;;;;;30.83;18.03;;;;;;;5.74;67.76;97734.83;1780537;78;21316;-82
2020/12/18 19:37:54;;;;;;;34.88;20.68;;;;;;;5.73;67.55;97733.62;1781300;79;21098;-85
2020/12/18 19:40:24;;;;;;;40.38;22.65;;;;;;;5.68;67.56;97737.80;1810007;76;21064;-85
2020/12/18 19:42:53;;;;;;;94.35;46.20;;;;;;;5.63;67.73;97742.02;1826474;76;21211;-85
2020/12/18 19:45:25;;;;;;;126.15;56.50;;;;;;;5.60;67.85;97742.19;1823040;76;21189;-83
2020/12/18 19:47:55;;;;;;;88.47;49.00;;;;;;;5.58;67.99;97748.45;1787592;79;21190;-83
2020/12/18 19:50:25;;;;;;;69.97;40.63;;;;;;;5.54;68.18;97747.77;1783642;79;21639;-85
2020/12/18 19:52:54;;;;;;;67.32;40.30;;;;;;;5.52;68.37;97745.72;1800690;76;21206;-84
2020/12/18 19:55:26;;;;;;;55.50;33.50;;;;;;;5.48;68.47;97749.44;1826258;77;21109;-83
2020/12/18 19:57:55;;;;;;;54.33;36.08;;;;;;;5.45;68.63;97748.30;1815804;77;21201;-83
2020/12/18 20:00:27;;;;;;;45.33;30.27;;;;;;;5.41;68.70;97744.67;1809977;77;21169;-83
2020/12/18 20:02:56;;;;;;;44.70;30.05;;;;;;;5.36;68.86;97747.06;1822215;77;21184;-84
2020/12/18 20:05:26;;;;;;;44.95;28.42;;;;;;;5.34;69.00;97745.02;1816363;77;21037;-82
2020/12/18 20:07:57;;;;;;;40.55;24.00;;;;;;;5.35;69.03;97749.31;1823253;77;21047;-84
2020/12/18 20:10:48;;;;;;;31.15;21.07;;;;;;;5.36;69.12;97754.06;1804570;77;21485;-82
2020/12/18 20:13:19;;;;;;;29.98;18.62;;;;;;;5.34;69.15;97749.41;1804660;77;21134;-84
2020/12/18 20:15:48;;;;;;;26.17;17.15;;;;;;;5.32;69.25;97756.00;1827557;77;21604;-82
2020/12/18 20:18:17;;;;;;;32.05;17.80;;;;;;;5.32;69.37;97754.70;1781883;78;21219;-83
2020/12/18 20:20:47;;;;;;;29.30;17.57;;;;;;;5.34;69.41;97759.38;1757777;78;21131;-83
2020/12/18 20:23:16;;;;;;;30.95;20.32;;;;;;;5.33;69.59;97760.75;1721879;79;21361;-83
2020/12/18 20:25:47;;;;;;;27.22;17.70;;;;;;;5.35;69.68;97754.53;1721334;82;21186;-85
2020/12/18 20:28:31;;;;;;;31.55;20.85;;;;;;;5.38;69.59;97756.58;1724806;82;21083;-82
2020/12/18 20:31:01;;;;;;;39.27;27.05;;;;;;;5.38;69.53;97760.03;1692621;83;21319;-85
2020/12/18 20:33:31;;;;;;;33.25;22.02;;;;;;;5.34;69.37;97754.63;1685403;82;21080;-82
2020/12/18 20:36:00;;;;;;;33.02;21.62;;;;;;;5.20;69.54;97760.62;1682841;83;22193;-84
2020/12/18 20:38:29;;;;;;;31.97;20.02;;;;;;;5.10;69.75;97760.78;1685245;83;21108;-83
2020/12/18 20:40:58;;;;;;;30.05;19.30;;;;;;;5.05;69.80;97761.50;1760572;80;21721;-84
2020/12/18 20:43:27;;;;;;;29.02;18.42;;;;;;;5.01;70.05;97769.12;1736719;82;21104;-84
2020/12/18 20:45:59;;;;;;;30.08;18.85;;;;;;;5.01;70.05;97768.66;1750424;80;21813;-85
2020/12/18 20:48:28;;;;;;;33.40;19.42;;;;;;;4.97;70.15;97767.59;1746708;79;21241;-84
2020/12/18 20:50:57;;;;;;;43.80;27.30;;;;;;;4.94;70.30;97763.87;1756618;79;21080;-85
2020/12/18 20:53:35;;;;;;;46.48;29.25;;;;;;;4.89;70.47;97764.12;1730522;82;21100;-82
2020/12/18 20:56:06;;;;;;;35.75;23.87;;;;;;;4.91;70.61;97775.30;1729922;82;21231;-84
2020/12/18 20:58:35;;;;;;;25.37;18.07;;;;;;;4.90;70.48;97772.31;1695582;83;21105;-81
2020/12/18 21:01:04;;;;;;;30.35;19.85;;;;;;;4.87;70.47;97772.97;1762773;80;21329;-82
2020/12/18 21:03:35;;;;;;;26.45;18.00;;;;;;;4.82;70.59;97777.13;1741974;81;21281;-84
2020/12/18 21:06:10;;;;;;;;;;;;;;;4.82;70.59;97777.13;1737779;82;21235;-84
2020/12/18 21:08:41;;;;;;;32.28;21.33;;;;;;;4.75;70.62;97774.48;1716538;82;20219;-82
2020/12/18 21:11:13;;;;;;;42.33;24.75;;;;;;;4.65;70.90;97776.74;1716248;82;21304;-83
2020/12/18 21:13:45;;;;;;;32.03;22.60;;;;;;;4.56;71.07;97778.53;1726098;82;21222;-83
2020/12/18 21:16:21;;;;;;;32.63;21.05;;;;;;;4.48;71.35;97782.86;1749753;80;21133;-83
2020/12/18 21:18:53;;;;;;;39.42;24.80;;;;;;;4.41;71.66;97783.28;1765988;80;21178;-83
2020/12/18 21:21:23;;;;;;;43.00;26.02;;;;;;;4.39;71.99;97778.59;1750726;79;21088;-83
2020/12/18 21:23:55;;;;;;;42.08;25.77;;;;;;;4.38;72.16;97782.97;1754300;79;21130;-83
2020/12/18 21:26:29;;;;;;;48.10;27.58;;;;;;;4.40;72.25;97779.84;1732629;82;21413;-83
2020/12/18 21:29:00;;;;;;;53.78;28.40;;;;;;;4.44;72.22;97776.58;1691313;83;21230;-82
2020/12/18 21:31:34;;;;;;;44.40;25.90;;;;;;;4.44;72.11;97777.89;1695484;83;21878;-83
2020/12/18 21:34:06;;;;;;;46.58;25.12;;;;;;;4.48;72.14;97775.50;1681263;82;21073;-82
2020/12/18 21:36:36;;;;;;;43.85;24.35;;;;;;;4.49;71.99;97771.97;1726830;79;21087;-84
2020/12/18 21:39:07;;;;;;;46.37;23.65;;;;;;;4.47;71.92;97772.06;1696737;82;21256;-83
2020/12/18 21:41:43;;;;;;;40.30;21.68;;;;;;;4.45;71.82;97768.70;1669997;83;21167;-83
2020/12/18 21:47:03;;;;;;;38.75;22.13;;;;;;;4.38;72.19;97777.75;1736286;82;21317;-84
2020/12/18 21:49:40;;;;;;;36.48;21.20;;;;;;;;;;1730963;81;21291;-84
2020/12/18 21:52:09;;;;;;;45.03;23.45;;;;;;;4.36;72.45;97769.64;1721967;82;21662;-82
2020/12/18 21:54:39;;;;;;;60.83;32.63;;;;;;;4.36;72.56;97770.95;1759580;79;21189;-84
2020/12/18 21:57:11;;;;;;;71.77;38.67;;;;;;;4.37;72.63;97769.55;1764227;80;21178;-83
2020/12/18 21:59:39;;;;;;;56.15;30.68;;;;;;;4.44;72.62;97767.45;1740787;81;21055;-83
2020/12/18 22:02:10;;;;;;;48.60;27.15;;;;;;;4.49;72.47;97762.38;1721583;79;21209;-83
2020/12/18 22:04:39;;;;;;;41.33;23.22;;;;;;;4.49;72.23;97763.67;1701018;82;21383;-82
2020/12/18 22:07:09;;;;;;;33.45;19.80;;;;;;;4.46;72.22;97763.02;1700871;82;21172;-85
2020/12/18 22:09:39;;;;;;;35.88;19.37;;;;;;;4.39;72.33;97761.64;1703432;82;21201;-82
2020/12/18 22:12:08;;;;;;;31.33;17.92;;;;;;;4.36;72.76;97760.52;1677504;83;21259;-83
2020/12/18 22:14:39;;;;;;;30.88;17.70;;;;;;;4.38;72.86;97761.27;1738834;80;21162;-83
2020/12/18 22:17:07;;;;;;;32.55;18.87;;;;;;;4.39;72.86;97762.94;1701180;81;21275;-83
2020/12/18 22:19:36;;;;;;;36.83;20.55;;;;;;;4.39;72.86;97760.34;1701048;82;21178;-84
2020/12/18 22:22:05;;;;;;;45.43;23.52;;;;;;;4.40;72.82;97765.95;1706672;82;21149;-84
2020/12/18 22:24:34;;;;;;;39.42;21.60;;;;;;;4.32;72.89;97765.04;1748044;80;21142;-83